sensor_id;sensor_type;location;lat;lon;timestamp;pressure;altitude;pressure_sealevel;temperature;humidity
24422;BME280;12600;53.326;-6.298;2023-03-20T00:01:58;100758.13;;;13.35;88.23
24422;BME280;12600;53.326;-6.298;2023-03-20T00:04:50;100749.75;;;13.32;88.92
24422;BME280;12600;53.326;-6.298;2023-03-20T00:07:40;100747.47;;;13.42;88.48
24422;BME280;12600;53.326;-6.298;2023-03-20T00:10:34;100759.88;;;13.49;88.03
24422;BME280;12600;53.326;-6.298;2023-03-20T00:13:25;100749.88;;;13.44;88.20
24422;BME280;12600;53.326;-6.298;2023-03-20T00:16:30;100760.53;;;13.46;88.49
24422;BME280;12600;53.326;-6.298;2023-03-20T00:19:21;100759.09;;;13.48;88.59
24422;BME280;12600;53.326;-6.298;2023-03-20T00:22:12;100762.94;;;13.56;88.06
24422;BME280;12600;53.326;-6.298;2023-03-20T00:25:02;100753.06;;;13.55;88.51
24422;BME280;12600;53.326;-6.298;2023-03-20T00:27:52;100767.78;;;13.59;88.57
24422;BME280;12600;53.326;-6.298;2023-03-20T00:30:43;100767.31;;;13.57;88.46
24422;BME280;12600;53.326;-6.298;2023-03-20T00:33:33;100763.25;;;13.54;88.61
24422;BME280;12600;53.326;-6.298;2023-03-20T00:36:23;100750.53;;;13.50;88.66
24422;BME280;12600;53.326;-6.298;2023-03-20T00:39:14;100766.63;;;13.60;88.67
24422;BME280;12600;53.326;-6.298;2023-03-20T00:42:05;100765.03;;;13.59;89.01
24422;BME280;12600;53.326;-6.298;2023-03-20T00:44:55;100764.88;;;13.47;89.86
24422;BME280;12600;53.326;-6.298;2023-03-20T00:47:49;100758.41;;;13.51;89.69
24422;BME280;12600;53.326;-6.298;2023-03-20T00:50:39;100752.59;;;13.53;89.87
24422;BME280;12600;53.326;-6.298;2023-03-20T00:53:29;100755.81;;;13.55;89.26
24422;BME280;12600;53.326;-6.298;2023-03-20T00:56:41;100740.34;;;13.50;90.14
24422;BME280;12600;53.326;-6.298;2023-03-20T00:59:34;100734.38;;;13.48;89.62
24422;BME280;12600;53.326;-6.298;2023-03-20T01:02:26;100728.38;;;13.46;90.12
24422;BME280;12600;53.326;-6.298;2023-03-20T01:05:20;100712.25;;;13.44;90.29
24422;BME280;12600;53.326;-6.298;2023-03-20T01:08:15;100715.19;;;13.39;90.56
24422;BME280;12600;53.326;-6.298;2023-03-20T01:11:05;100713.56;;;13.38;90.90
24422;BME280;12600;53.326;-6.298;2023-03-20T01:13:59;100716.59;;;13.46;90.94
24422;BME280;12600;53.326;-6.298;2023-03-20T01:16:48;100715.34;;;13.43;90.76
24422;BME280;12600;53.326;-6.298;2023-03-20T01:19:38;100709.38;;;13.41;91.27
24422;BME280;12600;53.326;-6.298;2023-03-20T01:22:27;100713.22;;;13.49;91.18
24422;BME280;12600;53.326;-6.298;2023-03-20T01:25:17;100718.88;;;13.43;90.73
24422;BME280;12600;53.326;-6.298;2023-03-20T01:28:16;100720.31;;;13.50;90.68
24422;BME280;12600;53.326;-6.298;2023-03-20T01:31:08;100713.66;;;13.59;90.23
24422;BME280;12600;53.326;-6.298;2023-03-20T01:33:59;100708.69;;;13.53;90.65
24422;BME280;12600;53.326;-6.298;2023-03-20T01:36:51;100706.75;;;13.53;90.25
24422;BME280;12600;53.326;-6.298;2023-03-20T01:39:41;100703.50;;;13.60;89.97
24422;BME280;12600;53.326;-6.298;2023-03-20T01:42:31;100688.53;;;13.49;90.99
24422;BME280;12600;53.326;-6.298;2023-03-20T01:45:25;100708.81;;;13.65;90.29
24422;BME280;12600;53.326;-6.298;2023-03-20T01:48:18;100698.34;;;13.58;90.31
24422;BME280;12600;53.326;-6.298;2023-03-20T01:51:08;100710.44;;;13.66;89.96
24422;BME280;12600;53.326;-6.298;2023-03-20T01:54:01;100717.53;;;13.67;89.88
24422;BME280;12600;53.326;-6.298;2023-03-20T01:57:01;100713.81;;;13.71;89.77
24422;BME280;12600;53.326;-6.298;2023-03-20T01:59:57;100701.88;;;13.59;90.33
24422;BME280;12600;53.326;-6.298;2023-03-20T02:03:03;100707.19;;;13.73;90.15
24422;BME280;12600;53.326;-6.298;2023-03-20T02:06:22;100698.94;;;13.73;90.25
24422;BME280;12600;53.326;-6.298;2023-03-20T02:09:30;100686.19;;;13.68;90.38
24422;BME280;12600;53.326;-6.298;2023-03-20T02:12:21;100699.88;;;13.77;89.80
24422;BME280;12600;53.326;-6.298;2023-03-20T02:15:12;100703.47;;;13.68;90.27
24422;BME280;12600;53.326;-6.298;2023-03-20T02:18:22;100696.31;;;13.76;89.89
24422;BME280;12600;53.326;-6.298;2023-03-20T02:25:53;100687.25;;;13.84;89.19
24422;BME280;12600;53.326;-6.298;2023-03-20T02:29:42;100694.06;;;13.78;89.62
24422;BME280;12600;53.326;-6.298;2023-03-20T02:33:15;100678.72;;;13.77;89.38
24422;BME280;12600;53.326;-6.298;2023-03-20T02:40:05;100689.81;;;13.89;88.41
24422;BME280;12600;53.326;-6.298;2023-03-20T02:43:07;100672.03;;;13.87;88.65
24422;BME280;12600;53.326;-6.298;2023-03-20T02:46:12;100687.38;;;13.96;88.23
24422;BME280;12600;53.326;-6.298;2023-03-20T02:49:16;100670.25;;;13.91;88.04
24422;BME280;12600;53.326;-6.298;2023-03-20T02:52:17;100672.81;;;13.96;88.29
24422;BME280;12600;53.326;-6.298;2023-03-20T02:55:16;100672.19;;;13.90;88.09
24422;BME280;12600;53.326;-6.298;2023-03-20T02:58:13;100666.03;;;13.93;88.16
24422;BME280;12600;53.326;-6.298;2023-03-20T03:01:10;100678.13;;;14.01;87.94
24422;BME280;12600;53.326;-6.298;2023-03-20T03:04:06;100665.09;;;13.89;88.03
24422;BME280;12600;53.326;-6.298;2023-03-20T03:06:56;100663.09;;;13.98;87.34
24422;BME280;12600;53.326;-6.298;2023-03-20T03:09:51;100669.59;;;13.94;87.66
24422;BME280;12600;53.326;-6.298;2023-03-20T03:12:45;100667.00;;;13.97;87.67
24422;BME280;12600;53.326;-6.298;2023-03-20T03:15:39;100658.94;;;13.92;87.60
24422;BME280;12600;53.326;-6.298;2023-03-20T03:18:31;100655.84;;;13.94;87.58
24422;BME280;12600;53.326;-6.298;2023-03-20T03:21:23;100654.88;;;13.98;87.52
24422;BME280;12600;53.326;-6.298;2023-03-20T03:24:27;100656.00;;;13.97;87.49
24422;BME280;12600;53.326;-6.298;2023-03-20T03:27:35;100651.97;;;13.95;87.06
24422;BME280;12600;53.326;-6.298;2023-03-20T03:30:31;100653.44;;;13.92;87.61
24422;BME280;12600;53.326;-6.298;2023-03-20T03:33:23;100652.13;;;13.98;87.13
24422;BME280;12600;53.326;-6.298;2023-03-20T03:36:24;100652.75;;;13.95;87.31
24422;BME280;12600;53.326;-6.298;2023-03-20T03:39:25;100652.47;;;13.97;87.27
24422;BME280;12600;53.326;-6.298;2023-03-20T03:42:24;100654.72;;;13.95;86.56
24422;BME280;12600;53.326;-6.298;2023-03-20T03:45:22;100667.59;;;14.03;87.12
24422;BME280;12600;53.326;-6.298;2023-03-20T03:48:18;100666.47;;;14.04;86.71
24422;BME280;12600;53.326;-6.298;2023-03-20T03:51:13;100673.13;;;13.94;86.81
24422;BME280;12600;53.326;-6.298;2023-03-20T03:54:20;100680.91;;;13.92;86.82
24422;BME280;12600;53.326;-6.298;2023-03-20T03:57:44;100672.72;;;13.84;87.00
24422;BME280;12600;53.326;-6.298;2023-03-20T04:00:41;100673.34;;;13.89;87.07
24422;BME280;12600;53.326;-6.298;2023-03-20T04:03:39;100676.88;;;13.90;87.02
24422;BME280;12600;53.326;-6.298;2023-03-20T04:06:28;100673.47;;;13.93;87.01
24422;BME280;12600;53.326;-6.298;2023-03-20T04:09:18;100669.13;;;13.92;86.90
24422;BME280;12600;53.326;-6.298;2023-03-20T04:12:33;100673.13;;;13.94;87.00
24422;BME280;12600;53.326;-6.298;2023-03-20T04:15:22;100657.03;;;13.84;86.55
24422;BME280;12600;53.326;-6.298;2023-03-20T04:18:16;100660.91;;;13.83;87.00
24422;BME280;12600;53.326;-6.298;2023-03-20T04:21:09;100663.00;;;13.86;86.71
24422;BME280;12600;53.326;-6.298;2023-03-20T04:23:59;100663.66;;;13.83;86.77
24422;BME280;12600;53.326;-6.298;2023-03-20T04:26:48;100671.78;;;13.80;86.86
24422;BME280;12600;53.326;-6.298;2023-03-20T04:29:38;100673.88;;;13.74;87.25
24422;BME280;12600;53.326;-6.298;2023-03-20T04:32:47;100675.56;;;13.58;87.46
24422;BME280;12600;53.326;-6.298;2023-03-20T04:35:46;100681.19;;;13.61;87.51
24422;BME280;12600;53.326;-6.298;2023-03-20T04:38:38;100681.22;;;13.53;87.59
24422;BME280;12600;53.326;-6.298;2023-03-20T04:41:27;100682.66;;;13.59;87.65
24422;BME280;12600;53.326;-6.298;2023-03-20T04:44:17;100676.22;;;13.55;87.29
24422;BME280;12600;53.326;-6.298;2023-03-20T04:47:08;100658.97;;;13.46;87.76
24422;BME280;12600;53.326;-6.298;2023-03-20T04:50:01;100679.28;;;13.53;88.12
24422;BME280;12600;53.326;-6.298;2023-03-20T04:52:51;100683.97;;;13.53;87.86
24422;BME280;12600;53.326;-6.298;2023-03-20T04:55:42;100685.59;;;13.54;87.62
24422;BME280;12600;53.326;-6.298;2023-03-20T04:58:33;100680.59;;;13.47;87.63
24422;BME280;12600;53.326;-6.298;2023-03-20T05:01:24;100678.03;;;13.42;88.75
24422;BME280;12600;53.326;-6.298;2023-03-20T05:04:13;100681.44;;;13.48;88.42
24422;BME280;12600;53.326;-6.298;2023-03-20T05:07:03;100690.47;;;13.48;88.52
24422;BME280;12600;53.326;-6.298;2023-03-20T05:10:00;100684.00;;;13.44;88.70
24422;BME280;12600;53.326;-6.298;2023-03-20T05:12:56;100678.84;;;13.42;88.99
24422;BME280;12600;53.326;-6.298;2023-03-20T05:15:51;100623.72;;;13.09;88.98
24422;BME280;12600;53.326;-6.298;2023-03-20T05:19:03;100665.66;;;13.27;89.66
24422;BME280;12600;53.326;-6.298;2023-03-20T05:22:02;100665.97;;;13.26;89.01
24422;BME280;12600;53.326;-6.298;2023-03-20T05:24:51;100649.69;;;13.21;89.81
24422;BME280;12600;53.326;-6.298;2023-03-20T05:28:03;100650.50;;;13.21;89.48
24422;BME280;12600;53.326;-6.298;2023-03-20T05:31:06;100650.94;;;13.14;90.11
24422;BME280;12600;53.326;-6.298;2023-03-20T05:34:11;100656.94;;;13.16;90.11
24422;BME280;12600;53.326;-6.298;2023-03-20T05:37:21;100656.78;;;13.13;90.30
24422;BME280;12600;53.326;-6.298;2023-03-20T05:40:25;100650.81;;;13.11;89.88
24422;BME280;12600;53.326;-6.298;2023-03-20T05:43:32;100657.75;;;13.17;90.01
24422;BME280;12600;53.326;-6.298;2023-03-20T05:46:44;100654.66;;;13.19;90.16
24422;BME280;12600;53.326;-6.298;2023-03-20T05:49:48;100663.69;;;13.19;89.81
24422;BME280;12600;53.326;-6.298;2023-03-20T05:52:56;100672.44;;;13.21;90.13
24422;BME280;12600;53.326;-6.298;2023-03-20T05:56:04;100669.34;;;13.14;90.57
24422;BME280;12600;53.326;-6.298;2023-03-20T05:59:01;100663.41;;;13.21;89.89
24422;BME280;12600;53.326;-6.298;2023-03-20T06:01:58;100658.22;;;13.19;90.04
24422;BME280;12600;53.326;-6.298;2023-03-20T06:04:51;100661.13;;;13.23;89.75
24422;BME280;12600;53.326;-6.298;2023-03-20T06:07:50;100652.59;;;13.24;89.59
24422;BME280;12600;53.326;-6.298;2023-03-20T06:10:39;100649.84;;;13.24;89.57
24422;BME280;12600;53.326;-6.298;2023-03-20T06:13:30;100652.25;;;13.26;89.40
24422;BME280;12600;53.326;-6.298;2023-03-20T06:16:22;100647.59;;;13.26;89.59
24422;BME280;12600;53.326;-6.298;2023-03-20T06:19:12;100659.38;;;13.27;89.41
24422;BME280;12600;53.326;-6.298;2023-03-20T06:22:02;100648.22;;;13.23;89.67
24422;BME280;12600;53.326;-6.298;2023-03-20T06:24:52;100653.06;;;13.26;89.12
24422;BME280;12600;53.326;-6.298;2023-03-20T06:27:49;100653.53;;;13.28;89.10
24422;BME280;12600;53.326;-6.298;2023-03-20T06:30:41;100662.25;;;13.30;89.21
24422;BME280;12600;53.326;-6.298;2023-03-20T06:33:37;100660.16;;;13.27;89.11
24422;BME280;12600;53.326;-6.298;2023-03-20T06:36:28;100658.22;;;13.28;89.01
24422;BME280;12600;53.326;-6.298;2023-03-20T06:39:26;100660.16;;;13.27;88.87
24422;BME280;12600;53.326;-6.298;2023-03-20T06:42:16;100654.69;;;13.27;88.89
24422;BME280;12600;53.326;-6.298;2023-03-20T06:45:09;100660.50;;;13.26;88.48
24422;BME280;12600;53.326;-6.298;2023-03-20T06:48:19;100660.16;;;13.19;88.64
24422;BME280;12600;53.326;-6.298;2023-03-20T06:51:11;100666.44;;;13.19;89.18
24422;BME280;12600;53.326;-6.298;2023-03-20T06:54:09;100677.91;;;13.21;89.09
24422;BME280;12600;53.326;-6.298;2023-03-20T06:56:59;100675.81;;;13.18;89.66
24422;BME280;12600;53.326;-6.298;2023-03-20T06:59:48;100681.13;;;13.23;89.29
24422;BME280;12600;53.326;-6.298;2023-03-20T07:02:37;100678.41;;;13.23;89.14
24422;BME280;12600;53.326;-6.298;2023-03-20T07:05:28;100679.84;;;13.29;89.35
24422;BME280;12600;53.326;-6.298;2023-03-20T07:08:28;100682.59;;;13.29;88.86
24422;BME280;12600;53.326;-6.298;2023-03-20T07:11:18;100681.44;;;13.30;89.38
24422;BME280;12600;53.326;-6.298;2023-03-20T07:14:08;100689.84;;;13.34;89.09
24422;BME280;12600;53.326;-6.298;2023-03-20T07:17:21;100674.50;;;13.41;88.79
24422;BME280;12600;53.326;-6.298;2023-03-20T07:20:14;100687.25;;;13.37;88.82
24422;BME280;12600;53.326;-6.298;2023-03-20T07:23:03;100688.81;;;13.47;88.81
24422;BME280;12600;53.326;-6.298;2023-03-20T07:25:57;100677.88;;;13.38;88.88
24422;BME280;12600;53.326;-6.298;2023-03-20T07:28:46;100703.38;;;13.48;88.60
24422;BME280;12600;53.326;-6.298;2023-03-20T07:31:44;100692.84;;;13.58;88.45
24422;BME280;12600;53.326;-6.298;2023-03-20T07:34:43;100681.53;;;13.60;88.35
24422;BME280;12600;53.326;-6.298;2023-03-20T07:37:34;100691.22;;;13.66;88.28
24422;BME280;12600;53.326;-6.298;2023-03-20T07:40:24;100683.91;;;13.70;88.35
24422;BME280;12600;53.326;-6.298;2023-03-20T07:43:18;100703.63;;;13.72;88.28
24422;BME280;12600;53.326;-6.298;2023-03-20T07:46:39;100682.16;;;13.65;87.21
24422;BME280;12600;53.326;-6.298;2023-03-20T07:49:29;100694.22;;;13.82;87.74
24422;BME280;12600;53.326;-6.298;2023-03-20T07:52:20;100705.53;;;13.80;87.95
24422;BME280;12600;53.326;-6.298;2023-03-20T07:55:09;100700.50;;;13.82;87.20
24422;BME280;12600;53.326;-6.298;2023-03-20T07:57:58;100703.56;;;13.89;87.21
24422;BME280;12600;53.326;-6.298;2023-03-20T08:00:49;100702.06;;;13.92;87.04
24422;BME280;12600;53.326;-6.298;2023-03-20T08:03:38;100718.38;;;13.97;87.06
24422;BME280;12600;53.326;-6.298;2023-03-20T08:06:28;100732.25;;;14.00;86.89
24422;BME280;12600;53.326;-6.298;2023-03-20T08:09:18;100734.66;;;14.02;86.41
24422;BME280;12600;53.326;-6.298;2023-03-20T08:12:07;100722.69;;;14.07;86.60
24422;BME280;12600;53.326;-6.298;2023-03-20T08:14:56;100714.44;;;14.07;86.49
24422;BME280;12600;53.326;-6.298;2023-03-20T08:17:47;100712.50;;;14.07;85.75
24422;BME280;12600;53.326;-6.298;2023-03-20T08:20:36;100710.84;;;14.15;85.57
24422;BME280;12600;53.326;-6.298;2023-03-20T08:23:26;100713.03;;;14.30;85.79
24422;BME280;12600;53.326;-6.298;2023-03-20T08:26:15;100704.91;;;14.34;85.67
24422;BME280;12600;53.326;-6.298;2023-03-20T08:29:04;100696.81;;;14.37;85.09
24422;BME280;12600;53.326;-6.298;2023-03-20T08:31:53;100699.84;;;14.44;85.17
24422;BME280;12600;53.326;-6.298;2023-03-20T08:34:46;100699.06;;;14.44;84.20
24422;BME280;12600;53.326;-6.298;2023-03-20T08:37:35;100704.03;;;14.50;84.17
24422;BME280;12600;53.326;-6.298;2023-03-20T08:40:24;100717.59;;;14.55;84.64
24422;BME280;12600;53.326;-6.298;2023-03-20T08:43:14;100719.47;;;14.64;84.53
24422;BME280;12600;53.326;-6.298;2023-03-20T08:46:04;100711.75;;;14.57;84.24
24422;BME280;12600;53.326;-6.298;2023-03-20T08:48:53;100714.97;;;14.59;83.20
24422;BME280;12600;53.326;-6.298;2023-03-20T08:51:44;100730.66;;;14.59;82.90
24422;BME280;12600;53.326;-6.298;2023-03-20T08:54:33;100717.69;;;14.68;82.43
24422;BME280;12600;53.326;-6.298;2023-03-20T08:57:22;100717.03;;;14.83;82.43
24422;BME280;12600;53.326;-6.298;2023-03-20T09:00:14;100706.25;;;14.78;81.27
24422;BME280;12600;53.326;-6.298;2023-03-20T09:03:03;100727.94;;;15.00;81.68
24422;BME280;12600;53.326;-6.298;2023-03-20T09:05:53;100727.94;;;15.00;80.46
24422;BME280;12600;53.326;-6.298;2023-03-20T09:08:43;100728.41;;;15.15;81.18
24422;BME280;12600;53.326;-6.298;2023-03-20T09:11:33;100733.63;;;15.16;81.11
24422;BME280;12600;53.326;-6.298;2023-03-20T09:14:22;100726.72;;;15.22;80.24
24422;BME280;12600;53.326;-6.298;2023-03-20T09:17:12;100715.94;;;15.17;79.72
24422;BME280;12600;53.326;-6.298;2023-03-20T09:20:01;100708.53;;;15.30;80.46
24422;BME280;12600;53.326;-6.298;2023-03-20T09:22:51;100697.00;;;15.49;80.31
24422;BME280;12600;53.326;-6.298;2023-03-20T09:25:41;100702.06;;;15.59;78.49
24422;BME280;12600;53.326;-6.298;2023-03-20T09:28:31;100708.19;;;15.77;79.82
24422;BME280;12600;53.326;-6.298;2023-03-20T09:31:20;100707.97;;;15.94;79.24
24422;BME280;12600;53.326;-6.298;2023-03-20T09:34:11;100700.19;;;16.08;79.63
24422;BME280;12600;53.326;-6.298;2023-03-20T09:37:00;100710.16;;;16.37;77.47
24422;BME280;12600;53.326;-6.298;2023-03-20T09:39:51;100712.44;;;16.47;75.66
24422;BME280;12600;53.326;-6.298;2023-03-20T09:42:49;100715.28;;;16.51;74.96
24422;BME280;12600;53.326;-6.298;2023-03-20T09:45:49;100711.41;;;16.40;74.42
24422;BME280;12600;53.326;-6.298;2023-03-20T09:48:45;100717.97;;;16.23;73.24
24422;BME280;12600;53.326;-6.298;2023-03-20T09:51:45;100710.88;;;16.22;73.77
24422;BME280;12600;53.326;-6.298;2023-03-20T09:54:40;100712.91;;;16.25;73.92
24422;BME280;12600;53.326;-6.298;2023-03-20T09:57:45;100712.91;;;16.25;73.97
24422;BME280;12600;53.326;-6.298;2023-03-20T10:00:36;100721.50;;;16.48;74.54
24422;BME280;12600;53.326;-6.298;2023-03-20T10:03:30;100711.06;;;16.54;72.64
24422;BME280;12600;53.326;-6.298;2023-03-20T10:06:21;100717.75;;;17.21;74.01
24422;BME280;12600;53.326;-6.298;2023-03-20T10:09:15;100708.00;;;17.55;71.01
24422;BME280;12600;53.326;-6.298;2023-03-20T10:12:34;100713.38;;;18.27;71.17
24422;BME280;12600;53.326;-6.298;2023-03-20T10:15:42;100712.06;;;18.56;69.25
24422;BME280;12600;53.326;-6.298;2023-03-20T10:18:37;100719.19;;;18.57;69.04
24422;BME280;12600;53.326;-6.298;2023-03-20T10:21:37;100723.56;;;18.23;65.55
24422;BME280;12600;53.326;-6.298;2023-03-20T10:24:32;100727.22;;;17.95;64.81
24422;BME280;12600;53.326;-6.298;2023-03-20T10:27:25;100722.53;;;17.52;65.08
24422;BME280;12600;53.326;-6.298;2023-03-20T10:30:50;100719.19;;;17.58;65.55
24422;BME280;12600;53.326;-6.298;2023-03-20T10:33:52;100729.38;;;17.86;65.80
24422;BME280;12600;53.326;-6.298;2023-03-20T10:36:59;100711.19;;;18.01;64.71
24422;BME280;12600;53.326;-6.298;2023-03-20T10:40:02;100718.03;;;18.23;63.22
24422;BME280;12600;53.326;-6.298;2023-03-20T10:43:00;100698.91;;;18.33;61.38
24422;BME280;12600;53.326;-6.298;2023-03-20T10:45:57;100695.94;;;18.42;61.74
24422;BME280;12600;53.326;-6.298;2023-03-20T10:48:51;100701.47;;;18.42;61.18
24422;BME280;12600;53.326;-6.298;2023-03-20T10:51:48;100703.13;;;18.27;60.48
24422;BME280;12600;53.326;-6.298;2023-03-20T10:54:41;100690.25;;;18.35;60.73
24422;BME280;12600;53.326;-6.298;2023-03-20T10:57:34;100692.97;;;18.15;60.57
24422;BME280;12600;53.326;-6.298;2023-03-20T11:00:29;100699.28;;;18.32;60.76
24422;BME280;12600;53.326;-6.298;2023-03-20T11:03:23;100701.34;;;18.19;60.69
24422;BME280;12600;53.326;-6.298;2023-03-20T11:06:17;100700.38;;;17.96;60.53
24422;BME280;12600;53.326;-6.298;2023-03-20T11:09:14;100695.56;;;17.61;61.47
24422;BME280;12600;53.326;-6.298;2023-03-20T11:12:15;100699.81;;;17.43;62.32
24422;BME280;12600;53.326;-6.298;2023-03-20T11:15:22;100696.66;;;17.28;62.79
24422;BME280;12600;53.326;-6.298;2023-03-20T11:18:12;100684.09;;;17.31;62.85
24422;BME280;12600;53.326;-6.298;2023-03-20T11:21:13;100680.66;;;17.34;62.96
24422;BME280;12600;53.326;-6.298;2023-03-20T11:24:04;100683.78;;;17.32;63.39
24422;BME280;12600;53.326;-6.298;2023-03-20T11:26:53;100676.91;;;17.42;63.41
24422;BME280;12600;53.326;-6.298;2023-03-20T11:29:53;100676.13;;;17.42;63.63
24422;BME280;12600;53.326;-6.298;2023-03-20T11:32:46;100682.63;;;17.33;63.17
24422;BME280;12600;53.326;-6.298;2023-03-20T11:35:36;100683.78;;;17.32;62.87
24422;BME280;12600;53.326;-6.298;2023-03-20T11:38:29;100681.69;;;17.29;62.54
24422;BME280;12600;53.326;-6.298;2023-03-20T11:41:23;100674.56;;;17.28;63.09
24422;BME280;12600;53.326;-6.298;2023-03-20T11:44:23;100670.66;;;17.29;63.11
24422;BME280;12600;53.326;-6.298;2023-03-20T11:47:18;100670.56;;;17.26;62.63
24422;BME280;12600;53.326;-6.298;2023-03-20T11:50:26;100666.22;;;17.25;63.29
24422;BME280;12600;53.326;-6.298;2023-03-20T11:53:28;100655.97;;;17.25;63.41
24422;BME280;12600;53.326;-6.298;2023-03-20T11:56:22;100659.06;;;17.24;63.24
24422;BME280;12600;53.326;-6.298;2023-03-20T11:59:14;100646.69;;;17.18;63.56
24422;BME280;12600;53.326;-6.298;2023-03-20T12:02:18;100656.31;;;17.40;63.85
24422;BME280;12600;53.326;-6.298;2023-03-20T12:05:30;100655.00;;;17.49;64.23
24422;BME280;12600;53.326;-6.298;2023-03-20T12:08:24;100643.06;;;17.45;63.90
24422;BME280;12600;53.326;-6.298;2023-03-20T12:11:36;100625.31;;;17.30;64.20
24422;BME280;12600;53.326;-6.298;2023-03-20T12:14:36;100641.19;;;17.33;64.47
24422;BME280;12600;53.326;-6.298;2023-03-20T12:17:34;100628.25;;;17.38;64.63
24422;BME280;12600;53.326;-6.298;2023-03-20T12:20:32;100624.81;;;17.41;64.76
24422;BME280;12600;53.326;-6.298;2023-03-20T12:23:31;100622.47;;;17.43;64.66
24422;BME280;12600;53.326;-6.298;2023-03-20T12:26:27;100638.88;;;17.51;64.99
24422;BME280;12600;53.326;-6.298;2023-03-20T12:29:26;100636.19;;;17.55;64.43
24422;BME280;12600;53.326;-6.298;2023-03-20T12:32:22;100632.53;;;17.67;64.83
24422;BME280;12600;53.326;-6.298;2023-03-20T12:35:15;100630.50;;;17.79;64.60
24422;BME280;12600;53.326;-6.298;2023-03-20T12:38:20;100615.06;;;17.78;62.90
24422;BME280;12600;53.326;-6.298;2023-03-20T12:41:14;100623.19;;;17.71;63.02
24422;BME280;12600;53.326;-6.298;2023-03-20T12:44:35;100626.88;;;17.75;62.58
24422;BME280;12600;53.326;-6.298;2023-03-20T12:47:51;100620.88;;;17.89;63.11
24422;BME280;12600;53.326;-6.298;2023-03-20T12:50:48;100610.03;;;18.15;62.31
24422;BME280;12600;53.326;-6.298;2023-03-20T12:53:52;100597.03;;;18.74;61.33
24422;BME280;12600;53.326;-6.298;2023-03-20T12:57:01;100593.09;;;19.63;60.76
24422;BME280;12600;53.326;-6.298;2023-03-20T13:00:10;100596.16;;;20.07;56.35
24422;BME280;12600;53.326;-6.298;2023-03-20T13:03:26;100594.59;;;20.10;55.07
24422;BME280;12600;53.326;-6.298;2023-03-20T13:06:29;100595.59;;;20.25;53.38
24422;BME280;12600;53.326;-6.298;2023-03-20T13:09:59;100599.22;;;20.59;53.19
24422;BME280;12600;53.326;-6.298;2023-03-20T13:13:02;100587.44;;;20.69;50.34
24422;BME280;12600;53.326;-6.298;2023-03-20T13:16:07;100595.56;;;21.26;50.46
24422;BME280;12600;53.326;-6.298;2023-03-20T13:19:06;100598.34;;;21.70;49.06
24422;BME280;12600;53.326;-6.298;2023-03-20T13:22:03;100583.75;;;21.84;48.04
24422;BME280;12600;53.326;-6.298;2023-03-20T13:25:01;100577.78;;;21.85;46.67
24422;BME280;12600;53.326;-6.298;2023-03-20T13:27:58;100571.84;;;21.87;47.50
24422;BME280;12600;53.326;-6.298;2023-03-20T13:30:57;100583.91;;;21.50;47.00
24422;BME280;12600;53.326;-6.298;2023-03-20T13:33:54;100566.38;;;21.02;48.34
24422;BME280;12600;53.326;-6.298;2023-03-20T13:36:57;100564.28;;;20.54;49.07
24422;BME280;12600;53.326;-6.298;2023-03-20T13:40:15;100552.47;;;20.31;50.22
24422;BME280;12600;53.326;-6.298;2023-03-20T13:43:20;100540.50;;;19.97;50.30
24422;BME280;12600;53.326;-6.298;2023-03-20T13:46:17;100551.25;;;19.49;51.16
24422;BME280;12600;53.326;-6.298;2023-03-20T13:49:14;100533.78;;;19.18;52.09
24422;BME280;12600;53.326;-6.298;2023-03-20T13:52:07;100541.41;;;19.02;53.09
24422;BME280;12600;53.326;-6.298;2023-03-20T13:55:14;100531.13;;;19.03;53.42
24422;BME280;12600;53.326;-6.298;2023-03-20T13:58:22;100523.19;;;19.01;53.40
24422;BME280;12600;53.326;-6.298;2023-03-20T14:01:23;100515.84;;;18.89;53.57
24422;BME280;12600;53.326;-6.298;2023-03-20T14:04:17;100515.44;;;18.87;53.89
24422;BME280;12600;53.326;-6.298;2023-03-20T14:07:26;100505.56;;;18.67;54.91
24422;BME280;12600;53.326;-6.298;2023-03-20T14:10:37;100503.31;;;18.72;55.32
24422;BME280;12600;53.326;-6.298;2023-03-20T14:13:27;100500.91;;;18.71;55.76
24422;BME280;12600;53.326;-6.298;2023-03-20T14:16:20;100496.69;;;18.77;55.67
24422;BME280;12600;53.326;-6.298;2023-03-20T14:19:17;100486.44;;;18.81;55.15
24422;BME280;12600;53.326;-6.298;2023-03-20T14:22:15;100490.44;;;18.84;54.56
24422;BME280;12600;53.326;-6.298;2023-03-20T14:25:13;100479.19;;;18.73;54.28
24422;BME280;12600;53.326;-6.298;2023-03-20T14:28:22;100468.06;;;18.69;54.08
24422;BME280;12600;53.326;-6.298;2023-03-20T14:31:23;100489.25;;;18.62;54.48
24422;BME280;12600;53.326;-6.298;2023-03-20T14:34:19;100477.00;;;18.63;54.89
24422;BME280;12600;53.326;-6.298;2023-03-20T14:37:28;100469.25;;;18.49;55.03
24422;BME280;12600;53.326;-6.298;2023-03-20T14:40:22;100474.41;;;18.51;54.91
24422;BME280;12600;53.326;-6.298;2023-03-20T14:43:19;100464.84;;;18.25;54.97
24422;BME280;12600;53.326;-6.298;2023-03-20T14:46:23;100468.69;;;18.21;55.15
24422;BME280;12600;53.326;-6.298;2023-03-20T14:49:45;100467.81;;;18.16;55.67
24422;BME280;12600;53.326;-6.298;2023-03-20T14:52:52;100462.91;;;18.06;55.98
24422;BME280;12600;53.326;-6.298;2023-03-20T14:56:05;100467.41;;;18.14;56.34
24422;BME280;12600;53.326;-6.298;2023-03-20T14:58:58;100457.19;;;18.18;56.79
24422;BME280;12600;53.326;-6.298;2023-03-20T15:01:57;100475.91;;;18.25;56.71
24422;BME280;12600;53.326;-6.298;2023-03-20T15:04:47;100461.69;;;18.27;57.34
24422;BME280;12600;53.326;-6.298;2023-03-20T15:07:38;100451.88;;;18.29;57.15
24422;BME280;12600;53.326;-6.298;2023-03-20T15:10:28;100445.25;;;18.34;57.46
24422;BME280;12600;53.326;-6.298;2023-03-20T15:13:18;100457.25;;;18.41;57.71
24422;BME280;12600;53.326;-6.298;2023-03-20T15:16:10;100448.44;;;18.36;57.82
24422;BME280;12600;53.326;-6.298;2023-03-20T15:19:07;100457.75;;;18.28;56.81
24422;BME280;12600;53.326;-6.298;2023-03-20T15:22:09;100445.47;;;18.25;57.49